Sao Martinho, Brazil
Current Conditions -  °F | °C
As of 12:00 AM on Monday 22 Dec 2014 (Local Time) from SBFL Reporting Station
Thunderstorm Thunderstorm  
Wind Chill: 77°   Ceiling: 8000
Heat Index: 78°   Visibility: 6mi
Dew Point: 73°   Wind: 7mph
Humidity: 89%   Direction: 330°NNW
Pressure: NA   Gusts: NA
Location:  28.16°S, 48.98°W
Report Text: SBFL 220200Z 33006KT 9999 -TSRA SCT010 FEW030CB BKN080 25/23 Q1005
Loading
Personal Weather Stations






























Interactive Weather Map New forecast layout! Learn more

10-Day Weather Forecast

Advertisements
Track Severe Weather on mobile